EHBK/MST METAR and TAF weather

Enter ICAO airport designator
Station Type Date Time Source
EHBK METAR 2021/09/27 06:55 UTC NOAA

EHBK 270655Z AUTO 19010KT 160V220 9999 NSC 17/14 Q1014 NOSIG


Station Type Date Time Source
EHBK Decoded METAR 2021/09/27 06:55 UTC NOAA

Maastricht Airport Zuid Limburg, Netherlands (EHBK) 50-55N 005-47E 116M
Sep 27, 2021 - 02:55 AM EDT / 2021.09.27 0655 UTC
Wind: from the S (190 degrees) at 12 MPH (10 KT) (direction variable):0
Visibility: greater than 7 mile(s):0
Temperature: 62 F (17 C)
Dew Point: 57 F (14 C)
Relative Humidity: 82%
Pressure (altimeter): 29.94 in. Hg (1014 hPa)
ob: EHBK 270655Z AUTO 19010KT 160V220 9999 NSC 17/14 Q1014 NOSIG
cycle: 7

Station Type Date Time Source
EHBK TAF 2021/09/27 06:27 UTC NOAA

TAF EHBK 270511Z 2706/2812 20012KT 9999 BKN030 PROB30
TEMPO 2706/2709 SCT008 BKN012
BECMG 2714/2717 27013KT
TEMPO 2714/2717 28015G25KT 4000 RA SHRA BKN014 SCT018CB
BECMG 2718/2721 24006KT

Example: see airport list